sensor_id;sensor_type;location;lat;lon;timestamp;temperature;humidity
17370;DHT22;8802;52.402;4.920;2024-03-25T00:01:30;14.70;92.80
17370;DHT22;8802;52.402;4.920;2024-03-25T00:03:57;14.70;92.50
17370;DHT22;8802;52.402;4.920;2024-03-25T00:06:25;14.70;92.60
17370;DHT22;8802;52.402;4.920;2024-03-25T00:08:52;14.70;92.80
17370;DHT22;8802;52.402;4.920;2024-03-25T00:11:18;14.70;92.60
17370;DHT22;8802;52.402;4.920;2024-03-25T00:13:45;14.70;92.50
17370;DHT22;8802;52.402;4.920;2024-03-25T00:16:10;14.70;92.30
17370;DHT22;8802;52.402;4.920;2024-03-25T00:18:38;14.70;92.50
17370;DHT22;8802;52.402;4.920;2024-03-25T00:21:04;14.70;92.50
17370;DHT22;8802;52.402;4.920;2024-03-25T00:23:32;14.70;92.50
17370;DHT22;8802;52.402;4.920;2024-03-25T00:25:58;14.70;92.50
17370;DHT22;8802;52.402;4.920;2024-03-25T00:28:25;14.70;92.60
17370;DHT22;8802;52.402;4.920;2024-03-25T00:30:51;14.70;92.60
17370;DHT22;8802;52.402;4.920;2024-03-25T00:33:18;14.70;92.60
17370;DHT22;8802;52.402;4.920;2024-03-25T00:35:44;14.70;92.80
17370;DHT22;8802;52.402;4.920;2024-03-25T00:38:11;14.70;92.70
17370;DHT22;8802;52.402;4.920;2024-03-25T00:40:39;14.70;92.50
17370;DHT22;8802;52.402;4.920;2024-03-25T00:43:06;14.70;92.40
17370;DHT22;8802;52.402;4.920;2024-03-25T00:45:32;14.70;92.50
17370;DHT22;8802;52.402;4.920;2024-03-25T00:47:59;14.70;92.80
17370;DHT22;8802;52.402;4.920;2024-03-25T00:50:25;14.70;92.90
17370;DHT22;8802;52.402;4.920;2024-03-25T00:52:52;14.70;92.60
17370;DHT22;8802;52.402;4.920;2024-03-25T00:55:22;14.70;92.70
17370;DHT22;8802;52.402;4.920;2024-03-25T00:57:51;14.60;92.40
17370;DHT22;8802;52.402;4.920;2024-03-25T01:00:18;14.60;92.50
17370;DHT22;8802;52.402;4.920;2024-03-25T01:02:45;14.60;92.70
17370;DHT22;8802;52.402;4.920;2024-03-25T01:05:11;14.70;92.80
17370;DHT22;8802;52.402;4.920;2024-03-25T01:07:38;14.60;92.70
17370;DHT22;8802;52.402;4.920;2024-03-25T01:10:05;14.60;92.90
17370;DHT22;8802;52.402;4.920;2024-03-25T01:12:32;14.70;92.30
17370;DHT22;8802;52.402;4.920;2024-03-25T01:15:00;14.60;92.40
17370;DHT22;8802;52.402;4.920;2024-03-25T01:17:27;14.60;92.30
17370;DHT22;8802;52.402;4.920;2024-03-25T01:19:53;14.70;92.30
17370;DHT22;8802;52.402;4.920;2024-03-25T01:22:20;14.60;92.60
17370;DHT22;8802;52.402;4.920;2024-03-25T01:24:46;14.60;92.30
17370;DHT22;8802;52.402;4.920;2024-03-25T01:27:13;14.60;92.40
17370;DHT22;8802;52.402;4.920;2024-03-25T01:29:39;14.60;92.50
17370;DHT22;8802;52.402;4.920;2024-03-25T01:32:07;14.60;92.50
17370;DHT22;8802;52.402;4.920;2024-03-25T01:34:33;14.60;92.50
17370;DHT22;8802;52.402;4.920;2024-03-25T01:37:00;14.60;92.50
17370;DHT22;8802;52.402;4.920;2024-03-25T01:39:27;14.60;92.50
17370;DHT22;8802;52.402;4.920;2024-03-25T01:41:54;14.60;92.70
17370;DHT22;8802;52.402;4.920;2024-03-25T01:44:20;14.60;92.80
17370;DHT22;8802;52.402;4.920;2024-03-25T01:46:47;14.60;92.80
17370;DHT22;8802;52.402;4.920;2024-03-25T01:49:15;14.60;92.60
17370;DHT22;8802;52.402;4.920;2024-03-25T01:51:42;14.60;92.80
17370;DHT22;8802;52.402;4.920;2024-03-25T01:54:08;14.60;92.80
17370;DHT22;8802;52.402;4.920;2024-03-25T01:56:36;14.60;92.70
17370;DHT22;8802;52.402;4.920;2024-03-25T01:59:04;14.70;92.50
17370;DHT22;8802;52.402;4.920;2024-03-25T02:01:31;14.70;92.70
17370;DHT22;8802;52.402;4.920;2024-03-25T02:03:57;14.60;92.50
17370;DHT22;8802;52.402;4.920;2024-03-25T02:06:27;14.60;92.60
17370;DHT22;8802;52.402;4.920;2024-03-25T02:08:56;14.70;92.60
17370;DHT22;8802;52.402;4.920;2024-03-25T02:11:23;14.70;92.40
17370;DHT22;8802;52.402;4.920;2024-03-25T02:13:49;14.70;92.50
17370;DHT22;8802;52.402;4.920;2024-03-25T02:16:17;14.70;92.30
17370;DHT22;8802;52.402;4.920;2024-03-25T02:18:43;14.70;92.50
17370;DHT22;8802;52.402;4.920;2024-03-25T02:21:10;14.70;92.50
17370;DHT22;8802;52.402;4.920;2024-03-25T02:23:39;14.70;92.60
17370;DHT22;8802;52.402;4.920;2024-03-25T02:26:10;14.70;92.60
17370;DHT22;8802;52.402;4.920;2024-03-25T02:28:36;14.70;92.60
17370;DHT22;8802;52.402;4.920;2024-03-25T02:31:03;14.70;92.50
17370;DHT22;8802;52.402;4.920;2024-03-25T02:33:29;14.70;92.10
17370;DHT22;8802;52.402;4.920;2024-03-25T02:35:56;14.70;92.30
17370;DHT22;8802;52.402;4.920;2024-03-25T02:38:22;14.70;92.30
17370;DHT22;8802;52.402;4.920;2024-03-25T02:40:50;14.70;92.30
17370;DHT22;8802;52.402;4.920;2024-03-25T02:43:18;14.70;92.30
17370;DHT22;8802;52.402;4.920;2024-03-25T02:45:47;14.60;92.10
17370;DHT22;8802;52.402;4.920;2024-03-25T02:48:13;14.60;92.20
17370;DHT22;8802;52.402;4.920;2024-03-25T02:50:41;14.60;92.10
17370;DHT22;8802;52.402;4.920;2024-03-25T02:53:07;14.60;92.50
17370;DHT22;8802;52.402;4.920;2024-03-25T02:55:33;14.60;92.50
17370;DHT22;8802;52.402;4.920;2024-03-25T02:57:59;14.60;92.50
17370;DHT22;8802;52.402;4.920;2024-03-25T03:00:28;14.60;92.30
17370;DHT22;8802;52.402;4.920;2024-03-25T03:02:54;14.70;92.50
17370;DHT22;8802;52.402;4.920;2024-03-25T03:05:21;14.70;92.40
17370;DHT22;8802;52.402;4.920;2024-03-25T03:07:47;14.70;92.50
17370;DHT22;8802;52.402;4.920;2024-03-25T03:10:14;14.60;92.40
17370;DHT22;8802;52.402;4.920;2024-03-25T03:12:41;14.70;92.70
17370;DHT22;8802;52.402;4.920;2024-03-25T03:15:09;14.70;92.20
17370;DHT22;8802;52.402;4.920;2024-03-25T03:17:36;14.60;92.20
17370;DHT22;8802;52.402;4.920;2024-03-25T03:20:04;14.60;92.20
17370;DHT22;8802;52.402;4.920;2024-03-25T03:22:30;14.60;92.30
17370;DHT22;8802;52.402;4.920;2024-03-25T03:24:57;14.60;92.20
17370;DHT22;8802;52.402;4.920;2024-03-25T03:27:23;14.60;92.10
17370;DHT22;8802;52.402;4.920;2024-03-25T03:29:50;14.60;92.40
17370;DHT22;8802;52.402;4.920;2024-03-25T03:32:16;14.60;92.20
17370;DHT22;8802;52.402;4.920;2024-03-25T03:34:44;14.60;92.30
17370;DHT22;8802;52.402;4.920;2024-03-25T03:37:10;14.60;92.60
17370;DHT22;8802;52.402;4.920;2024-03-25T03:39:37;14.50;92.50
17370;DHT22;8802;52.402;4.920;2024-03-25T03:42:03;14.60;92.30
17370;DHT22;8802;52.402;4.920;2024-03-25T03:44:30;14.50;92.30
17370;DHT22;8802;52.402;4.920;2024-03-25T03:46:56;14.50;92.40
17370;DHT22;8802;52.402;4.920;2024-03-25T03:49:23;14.50;92.50
17370;DHT22;8802;52.402;4.920;2024-03-25T03:51:50;14.40;92.40
17370;DHT22;8802;52.402;4.920;2024-03-25T03:54:17;14.50;92.40
17370;DHT22;8802;52.402;4.920;2024-03-25T03:56:43;14.40;92.30
17370;DHT22;8802;52.402;4.920;2024-03-25T03:59:10;14.40;92.30
17370;DHT22;8802;52.402;4.920;2024-03-25T04:01:36;14.40;92.20
17370;DHT22;8802;52.402;4.920;2024-03-25T04:04:04;14.40;91.90
17370;DHT22;8802;52.402;4.920;2024-03-25T04:06:30;14.40;91.90
17370;DHT22;8802;52.402;4.920;2024-03-25T04:08:59;14.30;92.20
17370;DHT22;8802;52.402;4.920;2024-03-25T04:11:25;14.30;92.40
17370;DHT22;8802;52.402;4.920;2024-03-25T04:13:51;14.20;92.30
17370;DHT22;8802;52.402;4.920;2024-03-25T04:16:17;14.20;92.20
17370;DHT22;8802;52.402;4.920;2024-03-25T04:18:44;14.20;92.30
17370;DHT22;8802;52.402;4.920;2024-03-25T04:21:11;14.20;92.30
17370;DHT22;8802;52.402;4.920;2024-03-25T04:23:39;14.20;92.30
17370;DHT22;8802;52.402;4.920;2024-03-25T04:26:07;14.10;92.30
17370;DHT22;8802;52.402;4.920;2024-03-25T04:28:35;14.10;92.40
17370;DHT22;8802;52.402;4.920;2024-03-25T04:31:01;14.10;92.30
17370;DHT22;8802;52.402;4.920;2024-03-25T04:33:28;14.10;92.30
17370;DHT22;8802;52.402;4.920;2024-03-25T04:35:54;14.10;92.30
17370;DHT22;8802;52.402;4.920;2024-03-25T04:38:21;14.10;92.40
17370;DHT22;8802;52.402;4.920;2024-03-25T04:40:47;14.00;92.30
17370;DHT22;8802;52.402;4.920;2024-03-25T04:43:14;14.00;92.30
17370;DHT22;8802;52.402;4.920;2024-03-25T04:45:40;14.00;92.30
17370;DHT22;8802;52.402;4.920;2024-03-25T04:48:07;14.00;92.20
17370;DHT22;8802;52.402;4.920;2024-03-25T04:50:33;14.00;92.40
17370;DHT22;8802;52.402;4.920;2024-03-25T04:52:59;14.00;92.20
17370;DHT22;8802;52.402;4.920;2024-03-25T04:55:25;13.90;92.00
17370;DHT22;8802;52.402;4.920;2024-03-25T04:57:51;13.80;92.10
17370;DHT22;8802;52.402;4.920;2024-03-25T05:00:19;13.90;92.50
17370;DHT22;8802;52.402;4.920;2024-03-25T05:02:45;13.90;92.40
17370;DHT22;8802;52.402;4.920;2024-03-25T05:05:11;13.80;92.30
17370;DHT22;8802;52.402;4.920;2024-03-25T05:07:37;13.90;92.30
17370;DHT22;8802;52.402;4.920;2024-03-25T05:10:03;13.80;92.20
17370;DHT22;8802;52.402;4.920;2024-03-25T05:12:29;13.80;92.40
17370;DHT22;8802;52.402;4.920;2024-03-25T05:14:55;13.80;92.20
17370;DHT22;8802;52.402;4.920;2024-03-25T05:17:23;13.80;92.20
17370;DHT22;8802;52.402;4.920;2024-03-25T05:19:49;13.80;92.20
17370;DHT22;8802;52.402;4.920;2024-03-25T05:22:15;13.70;92.10
17370;DHT22;8802;52.402;4.920;2024-03-25T05:24:41;13.70;92.30
17370;DHT22;8802;52.402;4.920;2024-03-25T05:27:07;13.70;92.40
17370;DHT22;8802;52.402;4.920;2024-03-25T05:29:33;13.70;92.40
17370;DHT22;8802;52.402;4.920;2024-03-25T05:32:00;13.70;92.60
17370;DHT22;8802;52.402;4.920;2024-03-25T05:34:28;13.70;92.50
17370;DHT22;8802;52.402;4.920;2024-03-25T05:36:55;13.70;92.50
17370;DHT22;8802;52.402;4.920;2024-03-25T05:39:21;13.60;92.70
17370;DHT22;8802;52.402;4.920;2024-03-25T05:41:47;13.60;92.60
17370;DHT22;8802;52.402;4.920;2024-03-25T05:44:13;13.60;92.90
17370;DHT22;8802;52.402;4.920;2024-03-25T05:46:39;13.70;93.00
17370;DHT22;8802;52.402;4.920;2024-03-25T05:49:06;13.70;92.80
17370;DHT22;8802;52.402;4.920;2024-03-25T05:51:33;13.70;92.80
17370;DHT22;8802;52.402;4.920;2024-03-25T05:53:59;13.70;92.80
17370;DHT22;8802;52.402;4.920;2024-03-25T05:56:25;13.70;92.60
17370;DHT22;8802;52.402;4.920;2024-03-25T05:58:51;13.70;92.60
17370;DHT22;8802;52.402;4.920;2024-03-25T06:01:17;13.70;92.60
17370;DHT22;8802;52.402;4.920;2024-03-25T06:03:43;13.70;93.00
17370;DHT22;8802;52.402;4.920;2024-03-25T06:06:09;13.70;93.00
17370;DHT22;8802;52.402;4.920;2024-03-25T06:08:37;13.70;92.90
17370;DHT22;8802;52.402;4.920;2024-03-25T06:11:03;13.70;92.90
17370;DHT22;8802;52.402;4.920;2024-03-25T06:13:29;13.80;93.10
17370;DHT22;8802;52.402;4.920;2024-03-25T06:15:56;13.80;93.10
17370;DHT22;8802;52.402;4.920;2024-03-25T06:18:25;13.80;93.10
17370;DHT22;8802;52.402;4.920;2024-03-25T06:20:51;13.90;93.10
17370;DHT22;8802;52.402;4.920;2024-03-25T06:23:25;13.90;93.10
17370;DHT22;8802;52.402;4.920;2024-03-25T06:25:53;14.00;93.10
17370;DHT22;8802;52.402;4.920;2024-03-25T06:28:20;14.00;93.00
17370;DHT22;8802;52.402;4.920;2024-03-25T06:30:46;14.10;93.10
17370;DHT22;8802;52.402;4.920;2024-03-25T06:33:31;14.20;93.10
17370;DHT22;8802;52.402;4.920;2024-03-25T06:36:16;14.30;93.20
17370;DHT22;8802;52.402;4.920;2024-03-25T06:38:42;14.40;93.10
17370;DHT22;8802;52.402;4.920;2024-03-25T06:41:09;14.40;93.00
17370;DHT22;8802;52.402;4.920;2024-03-25T06:43:35;14.60;92.90
17370;DHT22;8802;52.402;4.920;2024-03-25T06:46:04;14.60;92.90
17370;DHT22;8802;52.402;4.920;2024-03-25T06:48:30;14.70;92.90
17370;DHT22;8802;52.402;4.920;2024-03-25T06:51:24;14.70;92.80
17370;DHT22;8802;52.402;4.920;2024-03-25T06:53:50;14.80;92.60
17370;DHT22;8802;52.402;4.920;2024-03-25T06:56:20;14.90;92.80
17370;DHT22;8802;52.402;4.920;2024-03-25T06:58:46;14.90;92.90
17370;DHT22;8802;52.402;4.920;2024-03-25T07:01:12;15.00;92.90
17370;DHT22;8802;52.402;4.920;2024-03-25T07:03:38;15.20;93.00
17370;DHT22;8802;52.402;4.920;2024-03-25T07:06:05;15.30;93.00
17370;DHT22;8802;52.402;4.920;2024-03-25T07:08:31;15.40;92.90
17370;DHT22;8802;52.402;4.920;2024-03-25T07:10:57;15.60;92.90
17370;DHT22;8802;52.402;4.920;2024-03-25T07:13:25;15.70;92.70
17370;DHT22;8802;52.402;4.920;2024-03-25T07:15:51;15.90;92.40
17370;DHT22;8802;52.402;4.920;2024-03-25T07:18:17;16.10;92.10
17370;DHT22;8802;52.402;4.920;2024-03-25T07:20:44;16.20;91.50
17370;DHT22;8802;52.402;4.920;2024-03-25T07:23:10;16.20;91.10
17370;DHT22;8802;52.402;4.920;2024-03-25T07:25:37;16.20;90.80
17370;DHT22;8802;52.402;4.920;2024-03-25T07:28:03;16.20;91.30
17370;DHT22;8802;52.402;4.920;2024-03-25T07:30:31;16.10;91.60
17370;DHT22;8802;52.402;4.920;2024-03-25T07:32:57;16.10;91.80
17370;DHT22;8802;52.402;4.920;2024-03-25T07:35:24;16.00;91.30
17370;DHT22;8802;52.402;4.920;2024-03-25T07:37:50;16.00;91.10
17370;DHT22;8802;52.402;4.920;2024-03-25T07:40:17;16.00;91.80
17370;DHT22;8802;52.402;4.920;2024-03-25T07:42:46;16.00;92.10
17370;DHT22;8802;52.402;4.920;2024-03-25T07:45:12;16.10;92.20
17370;DHT22;8802;52.402;4.920;2024-03-25T07:47:40;16.20;91.90
17370;DHT22;8802;52.402;4.920;2024-03-25T07:50:07;16.40;92.00
17370;DHT22;8802;52.402;4.920;2024-03-25T07:52:33;16.50;92.10
17370;DHT22;8802;52.402;4.920;2024-03-25T07:55:00;16.80;91.90
17370;DHT22;8802;52.402;4.920;2024-03-25T07:57:26;17.00;91.80
17370;DHT22;8802;52.402;4.920;2024-03-25T07:59:52;17.20;91.30
17370;DHT22;8802;52.402;4.920;2024-03-25T08:02:18;17.50;91.30
17370;DHT22;8802;52.402;4.920;2024-03-25T08:04:46;17.60;91.30
17370;DHT22;8802;52.402;4.920;2024-03-25T08:07:12;17.80;91.20
17370;DHT22;8802;52.402;4.920;2024-03-25T08:09:38;18.10;91.00
17370;DHT22;8802;52.402;4.920;2024-03-25T08:12:05;18.30;90.70
17370;DHT22;8802;52.402;4.920;2024-03-25T08:14:31;18.50;90.50
17370;DHT22;8802;52.402;4.920;2024-03-25T08:16:57;18.70;90.40
17370;DHT22;8802;52.402;4.920;2024-03-25T08:19:23;18.90;90.30
17370;DHT22;8802;52.402;4.920;2024-03-25T08:21:51;19.10;89.70
17370;DHT22;8802;52.402;4.920;2024-03-25T08:24:17;19.20;88.70
17370;DHT22;8802;52.402;4.920;2024-03-25T08:26:43;19.40;89.00
17370;DHT22;8802;52.402;4.920;2024-03-25T08:29:09;19.50;88.10
17370;DHT22;8802;52.402;4.920;2024-03-25T08:31:35;19.60;88.30
17370;DHT22;8802;52.402;4.920;2024-03-25T08:34:01;19.70;88.00
17370;DHT22;8802;52.402;4.920;2024-03-25T08:36:27;19.80;87.80
17370;DHT22;8802;52.402;4.920;2024-03-25T08:38:55;19.90;85.90
17370;DHT22;8802;52.402;4.920;2024-03-25T08:41:21;19.90;84.80
17370;DHT22;8802;52.402;4.920;2024-03-25T08:43:47;20.00;84.70
17370;DHT22;8802;52.402;4.920;2024-03-25T08:46:13;19.90;85.10
17370;DHT22;8802;52.402;4.920;2024-03-25T08:48:39;19.90;84.70
17370;DHT22;8802;52.402;4.920;2024-03-25T08:51:05;19.80;84.00
17370;DHT22;8802;52.402;4.920;2024-03-25T08:53:31;19.70;84.70
17370;DHT22;8802;52.402;4.920;2024-03-25T08:55:58;19.70;84.90
17370;DHT22;8802;52.402;4.920;2024-03-25T08:58:24;19.70;86.10
17370;DHT22;8802;52.402;4.920;2024-03-25T09:00:50;19.60;86.30
17370;DHT22;8802;52.402;4.920;2024-03-25T09:03:16;19.60;85.30
17370;DHT22;8802;52.402;4.920;2024-03-25T09:05:42;19.60;86.00
17370;DHT22;8802;52.402;4.920;2024-03-25T09:08:08;19.60;85.30
17370;DHT22;8802;52.402;4.920;2024-03-25T09:10:34;19.60;84.30
17370;DHT22;8802;52.402;4.920;2024-03-25T09:13:20;19.60;83.50
17370;DHT22;8802;52.402;4.920;2024-03-25T09:15:46;19.50;84.60
17370;DHT22;8802;52.402;4.920;2024-03-25T09:18:12;19.50;83.90
17370;DHT22;8802;52.402;4.920;2024-03-25T09:20:38;19.40;83.70
17370;DHT22;8802;52.402;4.920;2024-03-25T09:23:04;19.30;84.90
17370;DHT22;8802;52.402;4.920;2024-03-25T09:25:30;19.20;84.80
17370;DHT22;8802;52.402;4.920;2024-03-25T09:27:56;19.20;87.20
17370;DHT22;8802;52.402;4.920;2024-03-25T09:30:23;19.10;87.50
17370;DHT22;8802;52.402;4.920;2024-03-25T09:32:49;19.20;88.20
17370;DHT22;8802;52.402;4.920;2024-03-25T09:35:15;19.20;86.40
17370;DHT22;8802;52.402;4.920;2024-03-25T09:37:41;19.20;87.00
17370;DHT22;8802;52.402;4.920;2024-03-25T09:40:08;19.20;87.60
17370;DHT22;8802;52.402;4.920;2024-03-25T09:42:39;19.20;86.70
17370;DHT22;8802;52.402;4.920;2024-03-25T09:45:08;19.20;85.10
17370;DHT22;8802;52.402;4.920;2024-03-25T09:47:38;19.20;85.50
17370;DHT22;8802;52.402;4.920;2024-03-25T09:50:08;19.20;85.00
17370;DHT22;8802;52.402;4.920;2024-03-25T09:52:36;19.20;84.30
17370;DHT22;8802;52.402;4.920;2024-03-25T09:55:02;19.20;84.10
17370;DHT22;8802;52.402;4.920;2024-03-25T09:57:29;19.20;88.00
17370;DHT22;8802;52.402;4.920;2024-03-25T09:59:55;19.10;89.90
17370;DHT22;8802;52.402;4.920;2024-03-25T10:02:21;19.00;85.70
17370;DHT22;8802;52.402;4.920;2024-03-25T10:04:49;19.00;88.90
17370;DHT22;8802;52.402;4.920;2024-03-25T10:07:22;19.00;87.00
17370;DHT22;8802;52.402;4.920;2024-03-25T10:09:48;19.00;87.60
17370;DHT22;8802;52.402;4.920;2024-03-25T10:12:14;18.90;88.20
17370;DHT22;8802;52.402;4.920;2024-03-25T10:14:40;18.90;89.80
17370;DHT22;8802;52.402;4.920;2024-03-25T10:17:06;18.90;90.30
17370;DHT22;8802;52.402;4.920;2024-03-25T10:19:33;18.90;91.10
17370;DHT22;8802;52.402;4.920;2024-03-25T10:22:05;18.90;90.40
17370;DHT22;8802;52.402;4.920;2024-03-25T10:24:38;18.90;90.20
17370;DHT22;8802;52.402;4.920;2024-03-25T10:27:05;19.00;90.90
17370;DHT22;8802;52.402;4.920;2024-03-25T10:29:31;19.00;91.10
17370;DHT22;8802;52.402;4.920;2024-03-25T10:32:00;19.00;88.40
17370;DHT22;8802;52.402;4.920;2024-03-25T10:34:26;19.00;90.70
17370;DHT22;8802;52.402;4.920;2024-03-25T10:36:56;19.10;88.30
17370;DHT22;8802;52.402;4.920;2024-03-25T10:39:26;19.10;89.80
17370;DHT22;8802;52.402;4.920;2024-03-25T10:41:55;19.10;90.80
17370;DHT22;8802;52.402;4.920;2024-03-25T10:44:22;19.20;87.90
17370;DHT22;8802;52.402;4.920;2024-03-25T10:46:51;19.20;89.50
17370;DHT22;8802;52.402;4.920;2024-03-25T10:49:27;19.20;90.20
17370;DHT22;8802;52.402;4.920;2024-03-25T10:51:56;19.20;90.20
17370;DHT22;8802;52.402;4.920;2024-03-25T10:54:24;19.30;88.50
17370;DHT22;8802;52.402;4.920;2024-03-25T10:56:51;19.30;90.20
17370;DHT22;8802;52.402;4.920;2024-03-25T10:59:18;19.40;88.60
17370;DHT22;8802;52.402;4.920;2024-03-25T11:01:46;19.40;88.30
17370;DHT22;8802;52.402;4.920;2024-03-25T11:04:12;19.40;90.00
17370;DHT22;8802;52.402;4.920;2024-03-25T11:06:38;19.40;90.50
17370;DHT22;8802;52.402;4.920;2024-03-25T11:09:04;19.40;87.00
17370;DHT22;8802;52.402;4.920;2024-03-25T11:11:35;19.40;90.20
17370;DHT22;8802;52.402;4.920;2024-03-25T11:14:03;19.40;90.30
17370;DHT22;8802;52.402;4.920;2024-03-25T11:16:29;19.50;89.40
17370;DHT22;8802;52.402;4.920;2024-03-25T11:19:00;19.50;90.10
17370;DHT22;8802;52.402;4.920;2024-03-25T11:21:26;19.50;90.40
17370;DHT22;8802;52.402;4.920;2024-03-25T11:23:52;19.60;86.60
17370;DHT22;8802;52.402;4.920;2024-03-25T11:26:20;19.70;89.00
17370;DHT22;8802;52.402;4.920;2024-03-25T11:28:47;19.70;90.00
17370;DHT22;8802;52.402;4.920;2024-03-25T11:31:13;19.80;89.20
17370;DHT22;8802;52.402;4.920;2024-03-25T11:33:40;19.80;88.80
17370;DHT22;8802;52.402;4.920;2024-03-25T11:36:06;19.90;89.40
17370;DHT22;8802;52.402;4.920;2024-03-25T11:38:33;19.90;88.40
17370;DHT22;8802;52.402;4.920;2024-03-25T11:40:59;20.00;88.70
17370;DHT22;8802;52.402;4.920;2024-03-25T11:43:25;20.00;84.80
17370;DHT22;8802;52.402;4.920;2024-03-25T11:45:53;20.00;89.10
17370;DHT22;8802;52.402;4.920;2024-03-25T11:48:19;20.00;88.70
17370;DHT22;8802;52.402;4.920;2024-03-25T11:50:46;20.00;87.90
17370;DHT22;8802;52.402;4.920;2024-03-25T11:53:13;20.00;86.10
17370;DHT22;8802;52.402;4.920;2024-03-25T11:55:40;20.00;83.30
17370;DHT22;8802;52.402;4.920;2024-03-25T11:58:06;20.00;86.00
17370;DHT22;8802;52.402;4.920;2024-03-25T12:00:33;20.00;86.00
17370;DHT22;8802;52.402;4.920;2024-03-25T12:03:00;20.00;85.20
17370;DHT22;8802;52.402;4.920;2024-03-25T12:05:27;20.00;87.20
17370;DHT22;8802;52.402;4.920;2024-03-25T12:07:52;20.00;84.40
17370;DHT22;8802;52.402;4.920;2024-03-25T12:10:18;20.00;85.20
17370;DHT22;8802;52.402;4.920;2024-03-25T12:13:03;20.00;84.50
17370;DHT22;8802;52.402;4.920;2024-03-25T12:15:30;19.90;85.30
17370;DHT22;8802;52.402;4.920;2024-03-25T12:17:56;19.90;82.60
17370;DHT22;8802;52.402;4.920;2024-03-25T12:20:23;19.80;81.80
17370;DHT22;8802;52.402;4.920;2024-03-25T12:22:50;19.70;84.50
17370;DHT22;8802;52.402;4.920;2024-03-25T12:25:19;19.70;79.70
17370;DHT22;8802;52.402;4.920;2024-03-25T12:27:46;19.70;80.10
17370;DHT22;8802;52.402;4.920;2024-03-25T12:30:13;19.70;82.30
17370;DHT22;8802;52.402;4.920;2024-03-25T12:32:40;19.60;85.50
17370;DHT22;8802;52.402;4.920;2024-03-25T12:35:07;19.60;81.20
17370;DHT22;8802;52.402;4.920;2024-03-25T12:37:36;19.60;82.80
17370;DHT22;8802;52.402;4.920;2024-03-25T12:40:03;19.60;81.90
17370;DHT22;8802;52.402;4.920;2024-03-25T12:42:30;19.60;83.10
17370;DHT22;8802;52.402;4.920;2024-03-25T12:44:56;19.60;85.00
17370;DHT22;8802;52.402;4.920;2024-03-25T12:47:22;19.60;82.50
17370;DHT22;8802;52.402;4.920;2024-03-25T12:49:48;19.60;83.30
17370;DHT22;8802;52.402;4.920;2024-03-25T12:52:14;19.60;80.70
17370;DHT22;8802;52.402;4.920;2024-03-25T12:54:42;19.60;82.10
17370;DHT22;8802;52.402;4.920;2024-03-25T12:57:08;19.70;80.90
17370;DHT22;8802;52.402;4.920;2024-03-25T12:59:34;19.60;78.90
17370;DHT22;8802;52.402;4.920;2024-03-25T13:02:00;19.70;77.90
17370;DHT22;8802;52.402;4.920;2024-03-25T13:04:26;19.70;78.90
17370;DHT22;8802;52.402;4.920;2024-03-25T13:06:52;19.60;78.40
17370;DHT22;8802;52.402;4.920;2024-03-25T13:09:18;19.60;78.50
17370;DHT22;8802;52.402;4.920;2024-03-25T13:11:46;19.50;78.10
17370;DHT22;8802;52.402;4.920;2024-03-25T13:14:13;19.50;78.00
17370;DHT22;8802;52.402;4.920;2024-03-25T13:16:39;19.40;78.10
17370;DHT22;8802;52.402;4.920;2024-03-25T13:19:06;19.40;82.00
17370;DHT22;8802;52.402;4.920;2024-03-25T13:21:32;19.40;80.50
17370;DHT22;8802;52.402;4.920;2024-03-25T13:23:58;19.30;79.50
17370;DHT22;8802;52.402;4.920;2024-03-25T13:26:24;19.30;82.30
17370;DHT22;8802;52.402;4.920;2024-03-25T13:28:52;19.20;82.20
17370;DHT22;8802;52.402;4.920;2024-03-25T13:31:18;19.20;79.00
17370;DHT22;8802;52.402;4.920;2024-03-25T13:33:44;19.20;78.90
17370;DHT22;8802;52.402;4.920;2024-03-25T13:36:10;19.20;81.50
17370;DHT22;8802;52.402;4.920;2024-03-25T13:38:36;19.10;79.50
17370;DHT22;8802;52.402;4.920;2024-03-25T13:41:03;19.10;77.60
17370;DHT22;8802;52.402;4.920;2024-03-25T13:43:29;19.10;81.50
17370;DHT22;8802;52.402;4.920;2024-03-25T13:45:56;19.10;82.50
17370;DHT22;8802;52.402;4.920;2024-03-25T13:48:23;19.10;82.00
17370;DHT22;8802;52.402;4.920;2024-03-25T13:50:49;19.10;78.30
17370;DHT22;8802;52.402;4.920;2024-03-25T13:53:15;19.10;80.50
17370;DHT22;8802;52.402;4.920;2024-03-25T13:55:41;19.10;78.20
17370;DHT22;8802;52.402;4.920;2024-03-25T13:58:07;19.10;76.90
17370;DHT22;8802;52.402;4.920;2024-03-25T14:00:33;19.10;75.90
17370;DHT22;8802;52.402;4.920;2024-03-25T14:03:00;19.10;78.40
17370;DHT22;8802;52.402;4.920;2024-03-25T14:05:26;19.10;77.70
17370;DHT22;8802;52.402;4.920;2024-03-25T14:07:53;19.10;80.30
17370;DHT22;8802;52.402;4.920;2024-03-25T14:10:19;19.10;81.40
17370;DHT22;8802;52.402;4.920;2024-03-25T14:12:45;19.10;80.90
17370;DHT22;8802;52.402;4.920;2024-03-25T14:15:13;19.10;78.00
17370;DHT22;8802;52.402;4.920;2024-03-25T14:17:39;19.10;79.00
17370;DHT22;8802;52.402;4.920;2024-03-25T14:20:07;19.20;76.70
17370;DHT22;8802;52.402;4.920;2024-03-25T14:22:34;19.20;79.90
17370;DHT22;8802;52.402;4.920;2024-03-25T14:25:00;19.20;77.20
17370;DHT22;8802;52.402;4.920;2024-03-25T14:27:26;19.20;77.70
17370;DHT22;8802;52.402;4.920;2024-03-25T14:29:52;19.20;78.60
17370;DHT22;8802;52.402;4.920;2024-03-25T14:32:19;19.20;76.40
17370;DHT22;8802;52.402;4.920;2024-03-25T14:34:45;19.20;77.10
17370;DHT22;8802;52.402;4.920;2024-03-25T14:37:13;19.20;77.40
17370;DHT22;8802;52.402;4.920;2024-03-25T14:39:39;19.10;77.40
17370;DHT22;8802;52.402;4.920;2024-03-25T14:42:07;19.10;77.50
17370;DHT22;8802;52.402;4.920;2024-03-25T14:44:34;19.00;77.40
17370;DHT22;8802;52.402;4.920;2024-03-25T14:47:00;19.00;77.30
17370;DHT22;8802;52.402;4.920;2024-03-25T14:49:26;18.90;77.90
17370;DHT22;8802;52.402;4.920;2024-03-25T14:51:52;18.90;76.90
17370;DHT22;8802;52.402;4.920;2024-03-25T14:54:20;18.80;76.60
17370;DHT22;8802;52.402;4.920;2024-03-25T14:56:46;18.70;77.40
17370;DHT22;8802;52.402;4.920;2024-03-25T14:59:12;18.70;76.10
17370;DHT22;8802;52.402;4.920;2024-03-25T15:01:38;18.60;75.30
17370;DHT22;8802;52.402;4.920;2024-03-25T15:04:05;18.50;74.60
17370;DHT22;8802;52.402;4.920;2024-03-25T15:06:31;18.50;75.90
17370;DHT22;8802;52.402;4.920;2024-03-25T15:08:57;18.40;75.60
17370;DHT22;8802;52.402;4.920;2024-03-25T15:11:25;18.30;76.30
17370;DHT22;8802;52.402;4.920;2024-03-25T15:13:52;18.30;76.60
17370;DHT22;8802;52.402;4.920;2024-03-25T15:16:18;18.20;76.10
17370;DHT22;8802;52.402;4.920;2024-03-25T15:18:44;18.20;76.20
17370;DHT22;8802;52.402;4.920;2024-03-25T15:21:10;18.10;75.40
17370;DHT22;8802;52.402;4.920;2024-03-25T15:23:37;18.10;75.80
17370;DHT22;8802;52.402;4.920;2024-03-25T15:26:03;18.00;76.30
17370;DHT22;8802;52.402;4.920;2024-03-25T15:28:30;18.00;76.50
17370;DHT22;8802;52.402;4.920;2024-03-25T15:30:56;17.90;78.60
17370;DHT22;8802;52.402;4.920;2024-03-25T15:33:23;17.90;78.60
17370;DHT22;8802;52.402;4.920;2024-03-25T15:35:49;17.90;78.60
17370;DHT22;8802;52.402;4.920;2024-03-25T15:38:15;17.90;79.70
17370;DHT22;8802;52.402;4.920;2024-03-25T15:40:42;17.90;79.10
17370;DHT22;8802;52.402;4.920;2024-03-25T15:43:08;17.80;77.80